Time;durP1;ratioP1;P1;durP2;ratioP2;P2;SDS_P1;SDS_P2;PMS_P1;PMS_P2;Temp;Humidity;BMP_temperature;BMP_pressure;BME280_temperature;BME280_humidity;BME280_pressure;Samples;Min_cycle;Max_cycle;Signal;HPM_P1;HPM_P2
2021/12/05 00:24:17;;;;;;;58.28;22.82;;;;;;;1.08;65.12;97817.10;1731669;83;20986;-44
2021/12/05 00:26:53;;;;;;;49.73;21.87;;;;;;;1.12;65.62;97815.23;1731286;81;20964;-43
2021/12/05 00:32:02;;;;;;;49.85;20.68;;;;;;;1.12;65.70;97825.12;1689924;82;20980;-43
2021/12/05 00:38:45;;;;;;;49.98;22.70;;;;;;;1.19;65.83;97825.73;1709083;82;20971;-43
2021/12/05 00:40:08;;;;;;;53.55;22.62;;;;;;;1.20;65.88;97827.86;1716225;83;20999;-43
2021/12/05 00:45:18;;;;;;;50.92;23.35;;;;;;;1.28;66.14;97816.28;1731310;82;21022;-43
2021/12/05 00:47:33;;;;;;;56.18;22.22;;;;;;;1.32;66.20;97809.23;1713005;83;20960;-44
2021/12/05 00:50:13;;;;;;;56.55;23.32;;;;;;;1.35;65.87;97813.00;1728914;82;21298;-43
2021/12/05 00:52:48;;;;;;;53.95;23.73;;;;;;;1.37;65.62;97808.59;1729323;82;21534;-43
2021/12/05 01:06:04;;;;;;;55.12;23.98;;;;;;;1.44;65.64;97821.67;1731304;81;20983;-42
2021/12/05 01:08:11;;;;;;;53.90;23.05;;;;;;;1.46;65.65;97819.03;1728653;83;20959;-42
2021/12/05 01:15:28;;;;;;;53.95;22.95;;;;;;;1.48;65.58;97818.05;1731334;82;20964;-42
2021/12/05 01:18:07;;;;;;;56.85;23.00;;;;;;;1.48;65.73;97823.22;1731286;83;21006;-42
2021/12/05 01:20:40;;;;;;;54.23;23.42;;;;;;;1.45;65.74;97820.75;1731241;82;20995;-43
2021/12/05 01:23:37;;;;;;;54.65;22.65;;;;;;;1.39;65.58;97827.96;1731350;83;21054;-43
2021/12/05 01:28:41;;;;;;;53.33;22.20;;;;;;;1.39;66.01;97824.08;1731300;82;21055;-43
2021/12/05 01:33:49;;;;;;;60.73;22.67;;;;;;;1.45;65.74;97816.87;1719897;82;21059;-43
2021/12/05 01:36:17;;;;;;;52.70;22.80;;;;;;;1.46;65.65;97812.09;1717601;83;20967;-43
2021/12/05 01:38:56;;;;;;;54.38;23.02;;;;;;;1.47;65.70;97815.52;1717068;83;21465;-43
2021/12/05 01:46:28;;;;;;;53.68;23.07;;;;;;;1.44;65.43;97810.48;1718366;82;21079;-43
2021/12/05 02:15:27;;;;;;;55.63;23.57;;;;;;;1.56;66.25;97808.64;1718398;83;20983;-44
2021/12/05 02:31:54;;;;;;;48.85;21.25;;;;;;;1.58;65.10;97798.22;1718363;82;20984;-43
2021/12/05 02:36:57;;;;;;;48.83;21.80;;;;;;;1.57;64.97;97793.50;1726067;83;21445;-43
2021/12/05 02:41:48;;;;;;;50.20;21.10;;;;;;;1.63;65.21;97789.80;1743628;78;21606;-42
2021/12/05 02:44:21;;;;;;;52.98;22.17;;;;;;;1.63;65.25;97793.22;1792522;80;21553;-42
2021/12/05 02:46:46;;;;;;;50.03;21.73;;;;;;;1.63;65.03;97792.39;1792297;80;20943;-42
2021/12/05 02:49:14;;;;;;;;;;;;;;;1.65;65.24;97793.16;1795028;80;20991;-42
2021/12/05 02:51:39;;;;;;;42.58;20.05;;;;;;;1.63;65.55;97797.58;1792349;80;20112;-42
2021/12/05 02:54:16;;;;;;;46.90;21.90;;;;;;;1.65;65.15;97794.00;1792828;79;20982;-43
2021/12/05 02:56:43;;;;;;;47.95;20.77;;;;;;;1.66;64.94;97792.27;1792011;80;20974;-43
2021/12/05 02:59:31;;;;;;;55.15;21.80;;;;;;;1.67;64.78;97799.11;1792076;80;21013;-42
2021/12/05 03:01:58;;;;;;;47.20;20.48;;;;;;;1.70;65.10;97791.22;1789643;80;21026;-42
2021/12/05 03:04:19;;;;;;;46.50;20.55;;;;;;;1.73;65.42;97788.50;1790369;80;21507;-42
2021/12/05 03:06:56;;;;;;;49.13;20.88;;;;;;;1.74;65.42;97782.39;1792604;80;20986;-42
2021/12/05 03:09:20;;;;;;;55.05;21.40;;;;;;;1.72;65.44;97785.52;1790429;80;21042;-43
2021/12/05 03:11:47;;;;;;;47.20;21.30;;;;;;;1.74;65.43;97781.09;1792802;80;20959;-42
2021/12/05 03:14:13;;;;;;;49.65;20.45;;;;;;;1.72;65.21;97776.44;1792794;80;21016;-42
2021/12/05 03:16:40;;;;;;;47.58;20.35;;;;;;;1.75;65.21;97775.45;1792579;80;20990;-42
2021/12/05 03:19:09;;;;;;;50.90;22.82;;;;;;;1.80;65.39;97774.37;1792667;80;20986;-43
2021/12/05 03:21:37;;;;;;;50.35;20.55;;;;;;;1.79;64.84;97778.32;1792667;80;20978;-42
2021/12/05 03:24:05;;;;;;;55.98;21.35;;;;;;;1.79;65.08;97784.80;1792644;80;20979;-42
2021/12/05 03:26:36;;;;;;;46.35;20.88;;;;;;;1.77;64.76;97784.86;1792556;80;20998;-42
2021/12/05 03:29:07;;;;;;;39.65;20.23;;;;;;;1.75;65.00;97789.27;1792569;80;20974;-42
2021/12/05 03:31:34;;;;;;;43.98;20.97;;;;;;;1.76;65.10;97784.46;1792572;80;21480;-43
2021/12/05 03:34:03;;;;;;;45.85;20.08;;;;;;;1.76;64.74;97790.11;1792780;80;20994;-42
2021/12/05 03:36:29;;;;;;;45.52;20.35;;;;;;;1.71;64.67;97796.77;1792576;80;21491;-42
2021/12/05 03:38:56;;;;;;;43.13;19.57;;;;;;;1.72;64.84;97799.77;1792742;79;20970;-42
2021/12/05 03:41:22;;;;;;;48.70;19.52;;;;;;;1.74;64.46;97794.05;1792569;80;21076;-43
2021/12/05 03:43:52;;;;;;;42.20;19.48;;;;;;;1.75;64.52;97799.64;1792293;80;21570;-42
2021/12/05 03:46:19;;;;;;;39.05;18.35;;;;;;;1.73;64.47;97799.70;1792480;80;20989;-43
2021/12/05 03:48:50;;;;;;;48.52;19.07;;;;;;;1.76;64.56;97798.72;1792706;80;20978;-42
2021/12/05 03:51:19;;;;;;;41.18;19.52;;;;;;;1.80;64.69;97800.72;1792495;80;20979;-42
2021/12/05 03:53:45;;;;;;;53.70;23.15;;;;;;;1.77;64.49;97792.64;1792666;80;20982;-42
2021/12/05 03:56:12;;;;;;;48.47;19.67;;;;;;;1.80;64.37;97801.58;1792842;80;21025;-42
2021/12/05 03:58:39;;;;;;;39.80;18.57;;;;;;;1.79;64.07;97796.00;1792612;80;21061;-42
2021/12/05 04:01:07;;;;;;;44.85;19.75;;;;;;;1.81;64.32;97796.77;1792836;79;20960;-42
2021/12/05 04:03:34;;;;;;;40.12;18.45;;;;;;;1.79;64.28;97792.11;1792541;80;21581;-42
2021/12/05 04:06:02;;;;;;;38.40;18.27;;;;;;;1.81;64.38;97790.29;1792667;80;20990;-42
2021/12/05 04:08:29;;;;;;;35.75;18.25;;;;;;;1.85;64.51;97778.87;1792563;80;21479;-42
2021/12/05 04:11:04;;;;;;;42.80;19.32;;;;;;;1.85;64.46;97784.05;1792657;79;20989;-42
2021/12/05 04:13:31;;;;;;;41.08;19.52;;;;;;;1.82;64.58;97785.51;1792291;80;21345;-43
2021/12/05 04:16:00;;;;;;;43.48;19.48;;;;;;;1.83;64.72;97775.50;1792799;79;20986;-42
2021/12/05 04:18:27;;;;;;;46.73;19.90;;;;;;;1.83;64.64;97775.50;1792556;79;21512;-42
2021/12/05 04:20:54;;;;;;;40.60;19.07;;;;;;;1.85;64.68;97771.55;1792763;80;20974;-42
2021/12/05 04:23:20;;;;;;;39.00;19.02;;;;;;;1.80;64.70;97773.08;1792535;80;21329;-42
2021/12/05 04:25:50;;;;;;;44.77;19.75;;;;;;;1.76;64.71;97771.97;1792682;80;21876;-43
2021/12/05 04:28:17;;;;;;;38.25;17.98;;;;;;;1.75;64.79;97763.36;1792194;80;20943;-42
2021/12/05 04:30:42;;;;;;;39.98;18.80;;;;;;;1.75;64.88;97768.54;1792626;80;21001;-42
2021/12/05 04:33:08;;;;;;;36.95;18.35;;;;;;;1.77;64.54;97776.25;1792657;80;21448;-42
2021/12/05 04:35:34;;;;;;;39.53;17.50;;;;;;;1.78;64.71;97784.40;1792574;80;20994;-42
2021/12/05 04:38:00;;;;;;;37.20;17.00;;;;;;;1.81;64.88;97786.41;1792669;80;20990;-42
2021/12/05 04:40:26;;;;;;;37.13;17.60;;;;;;;1.82;64.68;97790.69;1792521;80;21022;-43
2021/12/05 04:42:52;;;;;;;34.83;16.50;;;;;;;1.84;64.43;97791.92;1792496;80;21025;-43
2021/12/05 04:45:26;;;;;;;40.30;17.75;;;;;;;1.76;64.05;97790.94;1792532;79;21033;-42
2021/12/05 04:47:53;;;;;;;40.55;17.02;;;;;;;1.80;64.59;97794.24;1792557;80;20962;-42
2021/12/05 04:50:19;;;;;;;;;;;;;;;1.76;64.52;97800.47;1795343;80;21451;-42
2021/12/05 04:52:45;;;;;;;40.28;18.05;;;;;;;1.72;64.61;97799.77;1792705;80;20152;-43
2021/12/05 04:55:12;;;;;;;35.00;17.85;;;;;;;1.77;64.78;97792.64;1792773;80;21511;-42
2021/12/05 04:57:41;;;;;;;38.98;17.32;;;;;;;1.79;64.88;97802.94;1792895;80;21002;-42
2021/12/05 05:00:18;;;;;;;37.50;17.23;;;;;;;1.80;64.32;97804.17;1792662;80;20997;-43
2021/12/05 05:02:44;;;;;;;36.48;17.45;;;;;;;1.80;64.44;97807.20;1792530;80;21515;-42
2021/12/05 05:05:12;;;;;;;36.30;17.55;;;;;;;1.75;64.17;97804.83;1792688;80;21033;-42
2021/12/05 05:07:40;;;;;;;36.42;17.73;;;;;;;1.80;64.69;97807.20;1792743;80;20950;-42
2021/12/05 05:10:15;;;;;;;35.15;16.70;;;;;;;1.79;64.76;97806.83;1792669;80;21025;-43
2021/12/05 05:12:41;;;;;;;38.10;17.23;;;;;;;1.81;64.84;97807.60;1790857;80;20978;-41
2021/12/05 05:15:10;;;;;;;35.17;17.57;;;;;;;1.82;64.83;97807.97;1792649;80;21421;-41
2021/12/05 05:17:37;;;;;;;38.00;18.20;;;;;;;1.84;64.99;97813.95;1792396;80;21904;-41
2021/12/05 05:20:13;;;;;;;;;;;;;;;1.82;64.24;97808.84;1795320;80;21138;-42
2021/12/05 05:25:29;;;;;;;38.23;18.45;;;;;;;1.78;64.37;97813.74;1792712;80;21079;-41
2021/12/05 05:43:40;;;;;;;37.98;17.77;;;;;;;1.79;64.54;97819.33;1782708;80;21029;-41
2021/12/05 05:46:21;;;;;;;37.43;17.37;;;;;;;1.77;64.70;97819.84;1774624;81;21144;-41
2021/12/05 05:49:10;;;;;;;40.48;17.40;;;;;;;1.76;64.65;97816.86;1775334;81;21495;-41
2021/12/05 05:51:25;;;;;;;40.48;16.90;;;;;;;1.78;64.83;97820.22;1774092;81;20955;-42
2021/12/05 05:53:51;;;;;;;37.40;17.85;;;;;;;1.76;64.35;97819.45;1776903;81;21042;-41
2021/12/05 05:56:22;;;;;;;34.80;17.37;;;;;;;1.78;64.89;97822.81;1776993;80;20967;-41
2021/12/05 05:58:49;;;;;;;38.40;18.07;;;;;;;1.72;64.58;97826.98;1776265;81;20976;-41
2021/12/05 06:01:20;;;;;;;37.63;17.15;;;;;;;1.70;64.53;97825.73;1776401;81;21421;-41
2021/12/05 06:03:42;;;;;;;38.78;17.70;;;;;;;1.72;64.98;97831.70;1775979;81;20975;-41
2021/12/05 06:06:13;;;;;;;37.88;17.92;;;;;;;1.74;64.73;97834.23;1776848;80;20959;-41
2021/12/05 06:08:40;;;;;;;38.75;17.87;;;;;;;1.75;64.72;97843.70;1776896;81;20986;-41
2021/12/05 06:11:11;;;;;;;37.17;18.00;;;;;;;1.76;64.53;97850.55;1777015;81;21507;-41
2021/12/05 06:13:38;;;;;;;36.68;18.00;;;;;;;1.76;64.83;97851.84;1776937;81;20994;-41
2021/12/05 06:16:08;;;;;;;40.95;18.25;;;;;;;1.73;64.18;97859.31;1777010;80;20970;-42
2021/12/05 06:18:34;;;;;;;43.23;18.77;;;;;;;1.78;64.66;97860.39;1776608;81;21041;-41
2021/12/05 06:21:01;;;;;;;50.33;20.40;;;;;;;1.77;64.33;97860.48;1776937;81;21523;-42
2021/12/05 06:23:27;;;;;;;41.45;18.70;;;;;;;1.72;64.18;97858.08;1775713;81;21661;-43
2021/12/05 06:25:54;;;;;;;48.25;18.75;;;;;;;1.73;64.80;97867.55;1776897;80;21569;-42
2021/12/05 06:28:34;;;;;;;41.08;18.27;;;;;;;1.70;65.08;97866.37;1777113;80;20991;-42
2021/12/05 06:39:17;;;;;;;35.68;17.42;;;;;;;1.76;64.81;97886.00;1776867;81;21039;-42
2021/12/05 06:41:46;;;;;;;38.65;17.87;;;;;;;1.70;65.04;97884.52;1771836;81;21836;-42
2021/12/05 06:46:39;;;;;;;36.48;17.77;;;;;;;1.68;64.91;97894.11;1781805;80;21444;-42
2021/12/05 06:49:05;;;;;;;38.80;18.92;;;;;;;1.68;65.11;97894.94;1781818;80;20991;-42
2021/12/05 06:51:31;;;;;;;37.67;18.98;;;;;;;1.70;65.27;97900.90;1781770;80;20970;-42
2021/12/05 06:53:58;;;;;;;41.25;19.17;;;;;;;1.75;65.92;97907.63;1781759;80;20995;-42
2021/12/05 06:56:26;;;;;;;40.88;19.23;;;;;;;1.75;65.34;97908.92;1781779;80;21476;-41
2021/12/05 06:58:52;;;;;;;40.92;18.70;;;;;;;1.67;64.94;97914.43;1781931;80;20955;-42
2021/12/05 07:01:18;;;;;;;39.05;18.73;;;;;;;1.61;65.33;97917.29;1781774;80;21361;-42
2021/12/05 07:03:47;;;;;;;45.52;20.85;;;;;;;1.65;65.40;97918.84;1781825;80;21475;-42
2021/12/05 07:06:24;;;;;;;44.67;20.50;;;;;;;1.68;65.79;97915.67;1781563;80;21460;-42
2021/12/05 07:08:49;;;;;;;60.40;24.05;;;;;;;1.69;65.98;97922.55;1781410;80;20947;-41
2021/12/05 07:11:26;;;;;;;57.30;25.88;;;;;;;1.70;65.85;97917.74;1781896;80;20967;-42
2021/12/05 07:16:44;;;;;;;47.60;22.55;;;;;;;1.71;65.67;97938.02;1781772;80;21485;-42
2021/12/05 07:21:54;;;;;;;38.00;18.82;;;;;;;1.73;65.81;97941.41;1781863;80;20979;-42
2021/12/05 07:40:18;;;;;;;40.92;19.00;;;;;;;1.70;66.21;97947.55;1781712;80;20951;-42
2021/12/05 07:40:32;;;;;;;37.98;19.48;;;;;;;1.51;70.95;97951.34;1781737;80;21043;-42
2021/12/05 07:43:07;;;;;;;36.85;18.45;;;;;;;1.47;71.94;97952.35;1781831;80;21485;-43
2021/12/05 07:45:44;;;;;;;38.05;19.42;;;;;;;1.34;73.36;97953.30;1781733;80;20990;-43
2021/12/05 07:48:15;;;;;;;41.18;20.52;;;;;;;1.32;73.37;97957.70;1781801;80;21018;-43
2021/12/05 07:53:21;;;;;;;44.50;21.27;;;;;;;1.39;74.22;97953.59;1781778;80;21476;-43
2021/12/05 07:55:43;;;;;;;45.12;22.55;;;;;;;1.37;74.71;97957.52;1780588;80;20967;-42
2021/12/05 07:58:44;;;;;;;;;;;;;;;1.37;74.98;97956.69;1784185;80;21011;-42
2021/12/05 08:00:59;;;;;;;42.35;21.42;;;;;;;1.32;75.48;97956.86;1782307;80;20104;-42
2021/12/05 08:16:56;;;;;;;40.28;21.42;;;;;;;1.40;76.66;97947.48;1781791;80;21405;-42
2021/12/05 08:19:22;;;;;;;40.58;21.10;;;;;;;1.39;75.95;97946.65;1781948;80;21547;-43
2021/12/05 08:21:55;;;;;;;45.58;23.05;;;;;;;1.38;76.80;97957.06;1781727;80;20995;-42
2021/12/05 08:24:19;;;;;;;45.10;24.02;;;;;;;1.40;77.74;97950.94;1780550;80;21006;-42
2021/12/05 08:26:48;;;;;;;49.85;24.85;;;;;;;1.44;77.59;97956.38;1781852;80;21010;-43
2021/12/05 08:29:17;;;;;;;45.98;23.18;;;;;;;1.40;77.18;97958.71;1778670;80;21515;-42
2021/12/05 08:37:08;;;;;;;48.48;24.87;;;;;;;1.41;77.21;97951.77;1782048;80;20951;-43
2021/12/05 09:24:51;;;;;;;58.70;32.00;;;;;;;2.02;76.40;97963.53;1753171;82;21016;-43
2021/12/05 09:53:32;;;;;;;66.97;36.73;;;;;;;2.02;77.69;97953.59;1734676;83;21056;-43
2021/12/05 10:12:59;;;;;;;53.42;26.65;;;;;;;2.17;76.67;97964.63;1734675;83;21515;-42
2021/12/05 10:37:49;;;;;;;57.62;31.48;;;;;;;2.15;76.87;97954.78;1734741;82;21517;-43
2021/12/05 10:40:20;;;;;;;57.53;30.12;;;;;;;2.17;76.83;97952.95;1732967;82;21507;-43
2021/12/05 10:42:53;;;;;;;54.98;30.00;;;;;;;2.16;77.13;97956.91;1734524;82;21093;-43
2021/12/05 10:45:30;;;;;;;57.80;31.93;;;;;;;2.19;76.97;97959.37;1752732;81;21032;-42
2021/12/05 10:48:05;;;;;;;50.92;29.87;;;;;;;2.19;77.47;97949.00;1758108;81;20980;-43
2021/12/05 10:50:40;;;;;;;55.90;30.05;;;;;;;2.25;76.94;97948.27;1758037;81;21007;-43
2021/12/05 10:53:26;;;;;;;60.65;31.02;;;;;;;2.27;76.56;97954.69;1757921;81;21031;-43
2021/12/05 10:56:12;;;;;;;62.60;32.15;;;;;;;2.27;76.58;97950.80;1758197;81;21044;-43
2021/12/05 10:59:03;;;;;;;51.60;29.72;;;;;;;2.27;76.39;97949.07;1758216;81;20988;-43
2021/12/05 11:01:46;;;;;;;60.17;33.08;;;;;;;2.29;76.55;97947.68;1757855;81;21509;-44
2021/12/05 11:04:32;;;;;;;62.67;33.05;;;;;;;2.27;76.44;97948.20;1757964;81;20980;-41
2021/12/05 11:07:10;;;;;;;65.62;34.40;;;;;;;2.26;76.53;97946.53;1757823;81;21004;-42
2021/12/05 11:09:42;;;;;;;69.72;34.18;;;;;;;2.23;76.88;97941.01;1757884;81;20999;-42
2021/12/05 11:12:18;;;;;;;68.37;35.52;;;;;;;2.22;76.82;97932.86;1757868;81;21003;-43
2021/12/05 11:14:52;;;;;;;78.50;41.73;;;;;;;2.28;76.52;97936.47;1757917;81;21051;-43
2021/12/05 11:17:34;;;;;;;71.80;39.27;;;;;;;2.28;76.69;97935.17;1757866;81;21015;-42
2021/12/05 11:20:09;;;;;;;71.55;35.95;;;;;;;2.27;76.60;97923.13;1757832;81;21051;-42
2021/12/05 11:22:50;;;;;;;77.60;38.85;;;;;;;2.34;76.38;97920.25;1757801;81;21007;-41
2021/12/05 11:25:24;;;;;;;74.90;38.85;;;;;;;2.38;76.11;97913.55;1757861;81;21004;-42
2021/12/05 11:27:59;;;;;;;68.55;35.30;;;;;;;2.50;75.76;97916.91;1757931;81;20972;-43
2021/12/05 11:30:32;;;;;;;75.25;39.23;;;;;;;2.58;75.52;97921.75;1757856;81;20984;-42
2021/12/05 11:33:18;;;;;;;79.40;40.25;;;;;;;2.63;75.49;97919.79;1757805;81;21473;-42
2021/12/05 11:35:53;;;;;;;85.30;41.65;;;;;;;2.68;75.25;97940.36;1757650;81;21556;-43
2021/12/05 11:38:25;;;;;;;96.53;45.00;;;;;;;2.67;75.17;97941.26;1757996;81;21466;-42
2021/12/05 11:41:06;;;;;;;69.50;36.20;;;;;;;2.61;75.68;97940.25;1757831;81;21480;-43
2021/12/05 11:43:40;;;;;;;75.37;35.90;;;;;;;2.56;75.95;97949.52;1757543;81;21509;-43
2021/12/05 11:46:20;;;;;;;50.98;29.12;;;;;;;2.53;75.46;97948.38;1752495;82;21446;-42
2021/12/05 11:48:51;;;;;;;58.83;30.05;;;;;;;2.43;75.17;97952.28;1752519;82;21011;-42
2021/12/05 11:51:46;;;;;;;58.83;27.90;;;;;;;2.36;75.52;97945.20;1752553;81;21000;-43
2021/12/05 11:54:23;;;;;;;52.43;27.75;;;;;;;2.38;75.55;97951.63;1752531;82;21501;-43
2021/12/05 11:57:06;;;;;;;46.18;27.93;;;;;;;2.32;75.63;97957.09;1752729;82;20984;-43
2021/12/05 11:59:38;;;;;;;51.13;27.62;;;;;;;2.22;75.77;97952.73;1752615;82;21067;-42
2021/12/05 12:02:28;;;;;;;62.38;31.48;;;;;;;2.21;75.86;97956.27;1752632;82;21039;-42
2021/12/05 12:05:07;;;;;;;61.48;33.95;;;;;;;2.19;75.68;97970.59;1752681;81;21015;-43
2021/12/05 12:07:51;;;;;;;67.65;33.92;;;;;;;2.20;75.50;97970.12;1751801;82;20992;-42
2021/12/05 12:10:28;;;;;;;67.37;34.75;;;;;;;2.16;75.64;97969.88;1752738;82;21016;-42
2021/12/05 12:12:59;;;;;;;69.72;39.33;;;;;;;2.13;75.93;97982.96;1752766;82;20992;-42
2021/12/05 12:15:27;;;;;;;93.15;43.63;;;;;;;2.13;75.89;97983.83;1752189;82;21489;-43
2021/12/05 12:18:03;;;;;;;82.53;43.25;;;;;;;2.12;75.78;97992.50;1752652;82;20988;-43
2021/12/05 12:20:26;;;;;;;80.97;42.60;;;;;;;2.09;75.87;97991.33;1750996;82;20988;-43
2021/12/05 12:22:55;;;;;;;81.28;40.80;;;;;;;2.08;75.93;98009.94;1752687;81;21056;-43
2021/12/05 12:25:27;;;;;;;69.62;34.78;;;;;;;2.09;75.90;98007.75;1752640;82;20984;-42
2021/12/05 12:27:53;;;;;;;62.90;33.40;;;;;;;2.05;76.11;98017.00;1752620;81;21474;-43
2021/12/05 12:30:24;;;;;;;57.48;31.02;;;;;;;2.02;76.04;98011.93;1752744;81;21011;-42
2021/12/05 12:33:04;;;;;;;47.90;28.73;;;;;;;2.02;76.04;98006.74;1752137;82;20999;-43
2021/12/05 12:35:33;;;;;;;49.90;28.67;;;;;;;1.99;75.91;98003.00;1752590;82;21008;-43
2021/12/05 12:38:14;;;;;;;58.33;32.83;;;;;;;2.01;75.95;98012.39;1752598;82;21470;-43
2021/12/05 12:40:45;;;;;;;61.15;32.78;;;;;;;1.98;76.05;98011.21;1752613;82;21064;-43
2021/12/05 12:43:45;;;;;;;62.33;34.20;;;;;;;1.90;76.59;98014.13;1752631;82;20983;-43
2021/12/05 12:46:24;;;;;;;63.60;35.95;;;;;;;1.88;76.58;98015.94;1752662;82;21526;-43
2021/12/05 12:49:12;;;;;;;66.97;37.80;;;;;;;1.83;76.83;98017.87;1752722;81;21533;-44
2021/12/05 12:51:43;;;;;;;62.85;35.25;;;;;;;1.84;76.80;98018.27;1752652;81;21000;-42
2021/12/05 12:54:14;;;;;;;65.08;36.88;;;;;;;1.84;76.39;98026.05;1752778;82;21032;-42
2021/12/05 12:56:43;;;;;;;68.95;36.68;;;;;;;1.85;76.47;98025.59;1751951;81;21047;-42
2021/12/05 12:59:17;;;;;;;73.25;39.30;;;;;;;1.84;76.75;98030.41;1752628;82;21039;-42
2021/12/05 13:04:33;;;;;;;76.40;39.53;;;;;;;1.86;76.80;98019.05;1752635;82;20984;-42
2021/12/05 13:09:57;;;;;;;70.57;38.90;;;;;;;1.86;76.95;98020.34;1751082;82;20981;-42
2021/12/05 13:12:45;;;;;;;75.52;41.02;;;;;;;1.87;76.96;98022.05;1752620;82;21028;-42
2021/12/05 13:15:28;;;;;;;80.77;44.03;;;;;;;1.85;77.20;98024.30;1752873;82;20981;-42
2021/12/05 13:18:14;;;;;;;79.00;41.05;;;;;;;1.83;77.39;98021.76;1752616;82;21607;-42
2021/12/05 13:20:53;;;;;;;85.77;44.25;;;;;;;1.78;77.44;98027.57;1734845;82;21529;-42
2021/12/05 13:23:46;;;;;;;75.55;41.60;;;;;;;1.78;77.87;98035.34;1752086;82;21046;-42
2021/12/05 13:26:35;;;;;;;64.15;34.83;;;;;;;1.79;77.64;98036.22;1752645;82;20993;-42
2021/12/05 13:29:25;;;;;;;71.02;36.75;;;;;;;1.72;77.26;98027.83;1752604;82;21004;-42
2021/12/05 13:32:02;;;;;;;71.28;37.40;;;;;;;1.70;77.54;98027.05;1752589;82;21008;-42
2021/12/05 13:34:48;;;;;;;82.85;43.10;;;;;;;1.77;77.59;98028.95;1752733;82;20980;-42
2021/12/05 13:37:25;;;;;;;72.78;39.88;;;;;;;1.78;78.06;98034.52;1752585;82;21004;-42
2021/12/05 13:40:23;;;;;;;76.65;40.67;;;;;;;1.79;78.58;98034.45;1752663;82;20976;-42
2021/12/05 13:43:06;;;;;;;66.30;36.50;;;;;;;1.79;78.16;98029.27;1752599;82;21020;-43
2021/12/05 13:45:43;;;;;;;79.22;41.77;;;;;;;1.77;78.52;98031.09;1753729;81;21024;-42
2021/12/05 13:48:20;;;;;;;88.10;43.63;;;;;;;1.78;78.71;98030.62;1755458;82;21552;-43
2021/12/05 13:51:04;;;;;;;73.47;39.10;;;;;;;1.75;78.44;98027.72;1755648;82;21482;-43
2021/12/05 13:53:35;;;;;;;77.25;37.67;;;;;;;1.75;78.16;98031.61;1755583;82;21093;-43
2021/12/05 13:56:09;;;;;;;67.62;35.65;;;;;;;1.74;78.05;98033.80;1755553;82;20980;-42
2021/12/05 13:58:45;;;;;;;77.62;37.93;;;;;;;1.72;78.72;98033.02;1755528;82;20995;-43
2021/12/05 14:01:33;;;;;;;66.77;34.92;;;;;;;1.77;78.65;98034.98;1753650;81;21497;-42
2021/12/05 14:04:23;;;;;;;78.17;39.45;;;;;;;1.79;78.76;98030.57;1755545;81;21004;-43
2021/12/05 14:07:05;;;;;;;81.37;40.17;;;;;;;1.80;78.83;98034.00;1755395;82;21003;-43
2021/12/05 14:09:43;;;;;;;80.97;42.60;;;;;;;1.84;78.69;98030.41;1755503;82;20973;-42
2021/12/05 14:12:27;;;;;;;77.12;39.83;;;;;;;1.79;79.22;98030.57;1755495;82;20996;-42
2021/12/05 14:15:02;;;;;;;83.22;42.53;;;;;;;1.83;78.75;98032.13;1755108;82;21036;-42
2021/12/05 14:17:33;;;;;;;90.65;44.03;;;;;;;1.81;78.77;98040.88;1755707;82;20998;-43
2021/12/05 14:20:16;;;;;;;85.28;42.98;;;;;;;1.80;78.86;98041.77;1755535;82;20993;-43
2021/12/05 14:22:45;;;;;;;78.12;40.25;;;;;;;1.75;79.09;98047.58;1755481;82;21013;-43
2021/12/05 14:25:18;;;;;;;72.62;37.85;;;;;;;1.73;79.21;98039.90;1755518;82;21581;-43
2021/12/05 14:27:58;;;;;;;66.77;36.25;;;;;;;1.74;79.04;98038.98;1755417;80;20992;-43
2021/12/05 14:30:29;;;;;;;72.65;36.55;;;;;;;1.73;78.95;98040.73;1755485;82;21016;-49
2021/12/05 14:32:58;;;;;;;66.30;35.10;;;;;;;1.71;78.64;98050.32;1755515;82;21016;-42
2021/12/05 14:35:29;;;;;;;66.60;35.80;;;;;;;1.69;78.89;98048.25;1755305;81;21129;-43
2021/12/05 14:37:55;;;;;;;65.05;34.35;;;;;;;1.72;78.93;98056.34;1754104;81;21008;-43
2021/12/05 14:40:30;;;;;;;68.60;36.60;;;;;;;1.75;78.68;98054.06;1755550;82;21512;-42
2021/12/05 14:42:53;;;;;;;66.05;35.90;;;;;;;1.73;78.83;98052.86;1754330;81;21569;-43
2021/12/05 14:45:23;;;;;;;68.60;35.25;;;;;;;1.74;79.17;98057.12;1756342;81;21020;-43
2021/12/05 14:47:52;;;;;;;64.50;34.65;;;;;;;1.72;78.91;98057.17;1757985;81;21469;-42
2021/12/05 14:50:26;;;;;;;63.60;34.53;;;;;;;1.69;78.77;98057.74;1757901;80;21473;-43
2021/12/05 14:52:55;;;;;;;65.42;33.80;;;;;;;1.69;78.67;98068.11;1757847;81;21063;-43
2021/12/05 14:55:24;;;;;;;63.48;32.80;;;;;;;1.64;78.78;98067.47;1757859;80;21008;-42
2021/12/05 14:57:58;;;;;;;66.87;35.33;;;;;;;1.69;78.75;98079.77;1757937;81;20992;-43
2021/12/05 15:00:40;;;;;;;60.55;31.95;;;;;;;1.68;78.65;98082.83;1757911;81;21060;-42
2021/12/05 15:03:13;;;;;;;59.00;31.97;;;;;;;1.68;78.31;98079.40;1757898;81;21000;-43
2021/12/05 15:05:39;;;;;;;59.80;32.15;;;;;;;1.70;78.35;98087.95;1757752;81;20992;-42
2021/12/05 15:08:13;;;;;;;60.55;31.90;;;;;;;1.66;78.63;98085.94;1758210;81;21000;-43
2021/12/05 15:10:42;;;;;;;61.18;34.33;;;;;;;1.67;78.77;98085.05;1757876;81;21521;-43
2021/12/05 15:13:13;;;;;;;69.85;35.50;;;;;;;1.67;78.94;98084.17;1758007;81;20972;-42
2021/12/05 15:15:36;;;;;;;68.52;36.93;;;;;;;1.69;79.16;98077.18;1756460;81;20984;-42
2021/12/05 15:18:04;;;;;;;73.80;39.85;;;;;;;1.65;79.46;98078.21;1757887;81;20996;-43
2021/12/05 15:20:33;;;;;;;77.05;39.42;;;;;;;1.64;79.26;98082.56;1757918;81;20980;-43
2021/12/05 15:23:10;;;;;;;81.53;41.33;;;;;;;1.61;79.44;98087.02;1757825;81;21051;-43
2021/12/05 15:25:39;;;;;;;72.60;38.20;;;;;;;1.57;79.22;98085.45;1757863;81;21497;-42
2021/12/05 15:28:07;;;;;;;70.20;36.30;;;;;;;1.49;79.54;98089.61;1757928;81;21031;-44
2021/12/05 15:30:38;;;;;;;61.42;33.00;;;;;;;1.50;79.36;98096.03;1757910;81;21093;-43
2021/12/05 15:33:09;;;;;;;67.22;33.28;;;;;;;1.52;79.45;98099.41;1757288;80;21004;-43
2021/12/05 15:35:35;;;;;;;61.37;34.00;;;;;;;1.49;79.21;98103.85;1757966;81;21036;-43
2021/12/05 15:38:14;;;;;;;67.10;34.95;;;;;;;1.51;79.40;98102.05;1758039;81;20988;-42
2021/12/05 15:40:46;;;;;;;64.97;35.17;;;;;;;1.51;79.68;98099.03;1757807;81;21071;-43
2021/12/05 15:43:19;;;;;;;77.22;36.05;;;;;;;1.54;79.94;98100.64;1757826;81;21055;-43
2021/12/05 15:45:49;;;;;;;66.55;33.15;;;;;;;1.57;79.73;98099.24;1755063;81;21044;-43
2021/12/05 15:48:32;;;;;;;67.35;33.13;;;;;;;1.57;79.70;98102.30;1752498;82;21140;-42
2021/12/05 15:51:00;;;;;;;60.83;31.17;;;;;;;1.46;79.56;98102.70;1752527;82;21023;-42
2021/12/05 15:53:27;;;;;;;65.00;32.17;;;;;;;1.51;79.43;98107.23;1752456;82;21008;-43
2021/12/05 15:55:58;;;;;;;65.83;33.17;;;;;;;1.47;80.20;98101.31;1752755;82;21005;-42
2021/12/05 15:58:45;;;;;;;72.27;36.45;;;;;;;1.50;79.51;98110.28;1752505;82;21463;-43
2021/12/05 16:01:22;;;;;;;68.28;32.73;;;;;;;1.51;79.62;98108.09;1752642;82;20981;-43
2021/12/05 16:03:58;;;;;;;62.95;33.18;;;;;;;1.48;79.67;98109.95;1752538;82;21075;-43
2021/12/05 16:06:39;;;;;;;68.05;33.20;;;;;;;1.50;80.37;98114.62;1752474;82;20988;-43
2021/12/05 16:09:19;;;;;;;67.97;33.18;;;;;;;1.59;79.84;98114.73;1752239;81;21023;-43
2021/12/05 16:11:49;;;;;;;70.28;35.45;;;;;;;1.54;79.64;98107.95;1752503;82;21008;-42
2021/12/05 16:14:32;;;;;;;68.40;35.23;;;;;;;1.52;80.00;98116.24;1752538;82;21493;-42
2021/12/05 16:16:59;;;;;;;81.57;37.33;;;;;;;1.52;80.25;98115.41;1752541;82;21000;-42
2021/12/05 16:19:25;;;;;;;73.12;34.13;;;;;;;1.49;80.08;98115.09;1752464;81;21020;-43
2021/12/05 16:21:52;;;;;;;67.47;33.83;;;;;;;1.48;80.12;98109.50;1752575;82;20969;-43
2021/12/05 16:24:23;;;;;;;63.83;32.10;;;;;;;1.51;80.12;98108.09;1752551;82;21007;-43
2021/12/05 16:26:52;;;;;;;66.12;32.28;;;;;;;1.50;80.30;98107.69;1752460;82;21655;-43
2021/12/05 16:29:22;;;;;;;67.03;32.85;;;;;;;1.52;80.42;98108.47;1752582;82;21004;-42
2021/12/05 16:31:58;;;;;;;64.03;33.10;;;;;;;1.52;80.41;98109.77;1752420;82;21000;-42
2021/12/05 16:34:31;;;;;;;65.25;32.93;;;;;;;1.56;80.16;98114.84;1752488;82;21004;-42
2021/12/05 16:37:05;;;;;;;73.87;37.03;;;;;;;1.53;80.02;98121.83;1752425;82;20981;-43
2021/12/05 16:39:44;;;;;;;76.00;39.65;;;;;;;1.56;80.12;98123.91;1752563;82;21044;-43